createdAt,value
2019-01-22T00:02:03.675Z,-4.00
2019-01-22T00:04:35.089Z,-4.10
2019-01-22T00:07:05.374Z,-4.20
2019-01-22T00:09:35.599Z,-4.20
2019-01-22T00:12:06.064Z,-4.20
2019-01-22T00:14:36.271Z,-4.20
2019-01-22T00:17:06.419Z,-4.30
2019-01-22T00:19:36.746Z,-4.30
2019-01-22T00:22:06.981Z,-4.30
2019-01-22T00:24:37.256Z,-4.30
2019-01-22T00:27:07.471Z,-4.30
2019-01-22T00:29:37.654Z,-4.30
2019-01-22T00:32:07.813Z,-4.30
2019-01-22T00:34:38.008Z,-4.40
2019-01-22T00:37:08.173Z,-4.40
2019-01-22T00:39:38.345Z,-4.40
2019-01-22T00:42:08.527Z,-4.40
2019-01-22T00:44:38.799Z,-4.40
2019-01-22T00:47:08.987Z,-4.50
2019-01-22T00:49:39.230Z,-4.50
2019-01-22T00:52:09.413Z,-4.60
2019-01-22T00:54:39.555Z,-4.60
2019-01-22T00:57:09.734Z,-4.70
2019-01-22T00:59:39.923Z,-4.70
2019-01-22T01:02:10.084Z,-4.70
2019-01-22T01:04:41.335Z,-4.70
2019-01-22T01:07:11.592Z,-4.70
2019-01-22T01:09:41.798Z,-4.60
2019-01-22T01:12:12.037Z,-4.70
2019-01-22T01:14:42.290Z,-4.60
2019-01-22T01:17:12.438Z,-4.60
2019-01-22T01:19:42.632Z,-4.50
2019-01-22T01:22:12.791Z,-4.50
2019-01-22T01:24:42.964Z,-4.60
2019-01-22T01:27:13.421Z,-4.60
2019-01-22T01:29:43.595Z,-4.60
2019-01-22T01:32:13.770Z,-4.60
2019-01-22T01:34:43.951Z,-4.60
2019-01-22T01:37:14.143Z,-4.50
2019-01-22T01:39:44.720Z,-4.50
2019-01-22T01:42:14.894Z,-4.50
2019-01-22T01:44:45.166Z,-4.60
2019-01-22T01:47:15.413Z,-4.60
2019-01-22T01:49:45.662Z,-4.60
2019-01-22T01:52:16.304Z,-4.60
2019-01-22T01:54:46.571Z,-4.60
2019-01-22T01:57:16.739Z,-4.70
2019-01-22T01:59:46.931Z,-4.70
2019-01-22T02:02:17.110Z,-4.70
2019-01-22T02:04:47.292Z,-4.70
2019-01-22T02:07:17.455Z,-4.70
2019-01-22T02:09:47.629Z,-4.70
2019-01-22T02:12:21.351Z,-4.80
2019-01-22T02:14:58.619Z,-4.80
2019-01-22T02:18:04.709Z,-4.80
2019-01-22T02:21:19.555Z,-4.80
2019-01-22T02:24:27.473Z,-4.80
2019-01-22T02:27:37.860Z,-4.80
2019-01-22T02:30:25.759Z,-4.90
2019-01-22T02:33:20.956Z,-4.90
2019-01-22T02:36:31.780Z,-4.90
2019-01-22T02:39:20.392Z,-4.80
2019-01-22T02:42:18.128Z,-4.80
2019-01-22T02:45:32.392Z,-4.80
2019-01-22T02:48:34.923Z,-4.80
2019-01-22T02:51:14.304Z,-4.80
2019-01-22T02:53:58.080Z,-4.90
2019-01-22T02:57:27.456Z,-5.00
2019-01-22T03:00:42.244Z,-4.90
2019-01-22T03:03:51.336Z,-4.90
2019-01-22T03:07:08.712Z,-4.90
2019-01-22T03:10:32.663Z,-4.90
2019-01-22T03:13:43.141Z,-4.90
2019-01-22T03:16:51.663Z,-5.00
2019-01-22T03:19:34.264Z,-5.00
2019-01-22T03:22:18.017Z,-5.00
2019-01-22T03:25:35.216Z,-5.00
2019-01-22T03:28:27.770Z,-4.90
2019-01-22T03:31:48.649Z,-4.90
2019-01-22T03:34:34.395Z,-4.90
2019-01-22T03:37:34.912Z,-4.90
2019-01-22T03:40:49.589Z,-5.00
2019-01-22T03:44:10.046Z,-5.10
2019-01-22T03:47:12.776Z,-5.10
2019-01-22T03:50:36.200Z,-5.10
2019-01-22T03:53:33.251Z,-5.10
2019-01-22T03:56:28.873Z,-5.10
2019-01-22T03:58:59.012Z,-5.00
2019-01-22T04:01:30.960Z,-5.10
2019-01-22T04:04:01.304Z,-5.10
2019-01-22T04:06:34.390Z,-5.10
2019-01-22T04:09:21.087Z,-5.10
2019-01-22T04:11:51.839Z,-5.10
2019-01-22T04:14:23.680Z,-5.10
2019-01-22T04:16:53.895Z,-5.20
2019-01-22T04:19:24.044Z,-5.20
2019-01-22T04:21:54.252Z,-5.20
2019-01-22T04:24:55.003Z,-5.20
2019-01-22T04:28:02.787Z,-5.30
2019-01-22T04:30:52.573Z,-5.30
2019-01-22T04:34:09.148Z,-5.20
2019-01-22T04:37:21.534Z,-5.20
2019-01-22T04:40:06.404Z,-5.30
2019-01-22T04:43:03.599Z,-5.30
2019-01-22T04:46:39.432Z,-5.30
2019-01-22T04:49:44.107Z,-5.30
2019-01-22T04:52:43.570Z,-5.30
2019-01-22T04:55:54.173Z,-5.20
2019-01-22T04:58:47.279Z,-5.20
2019-01-22T05:01:57.062Z,-5.20
2019-01-22T05:04:56.684Z,-5.20
2019-01-22T05:07:57.271Z,-5.20
2019-01-22T05:11:15.083Z,-5.10
2019-01-22T05:13:58.636Z,-5.20
2019-01-22T05:17:18.747Z,-5.10
2019-01-22T05:20:02.772Z,-5.10
2019-01-22T05:23:09.584Z,-5.10
2019-01-22T05:26:17.247Z,-5.10
2019-01-22T05:29:29.727Z,-5.10
2019-01-22T05:32:44.023Z,-5.10
2019-01-22T05:35:47.180Z,-5.10
2019-01-22T05:38:45.794Z,-5.10
2019-01-22T05:41:41.077Z,-5.10
2019-01-22T05:44:40.812Z,-5.00
2019-01-22T05:47:53.483Z,-5.10
2019-01-22T05:51:00.402Z,-5.00
2019-01-22T05:54:25.237Z,-5.00
2019-01-22T05:57:18.587Z,-5.00
2019-01-22T06:00:57.320Z,-5.00
2019-01-22T06:04:10.069Z,-4.90
2019-01-22T06:06:55.293Z,-4.90
2019-01-22T06:10:38.420Z,-4.90
2019-01-22T06:13:36.304Z,-4.90
2019-01-22T06:16:36.437Z,-4.90
2019-01-22T06:19:32.453Z,-4.80
2019-01-22T06:22:23.572Z,-4.80
2019-01-22T06:25:28.078Z,-4.80
2019-01-22T06:28:19.984Z,-4.80
2019-01-22T06:31:36.068Z,-4.80
2019-01-22T06:34:53.261Z,-4.80
2019-01-22T06:37:36.136Z,-4.80
2019-01-22T06:40:14.979Z,-4.80
2019-01-22T06:43:02.606Z,-4.80
2019-01-22T06:46:12.439Z,-4.80
2019-01-22T06:49:17.282Z,-4.80
2019-01-22T06:52:34.671Z,-4.80
2019-01-22T06:55:40.460Z,-4.80
2019-01-22T06:58:58.091Z,-4.70
2019-01-22T07:02:15.388Z,-4.80
2019-01-22T07:05:22.207Z,-4.70
2019-01-22T07:08:35.459Z,-4.70
2019-01-22T07:11:30.411Z,-4.70
2019-01-22T07:14:26.567Z,-4.80
2019-01-22T07:17:40.187Z,-4.70
2019-01-22T07:20:54.504Z,-4.70
2019-01-22T07:24:08.528Z,-4.70
2019-01-22T07:26:54.184Z,-4.60
2019-01-22T07:30:08.387Z,-4.60
2019-01-22T07:32:55.873Z,-4.60
2019-01-22T07:35:38.447Z,-4.50
2019-01-22T07:38:33.095Z,-4.40
2019-01-22T07:41:14.569Z,-4.30
2019-01-22T07:44:18.454Z,-4.20
2019-01-22T07:47:17.536Z,-4.20
2019-01-22T07:50:26.125Z,-4.10
2019-01-22T07:53:24.256Z,-4.00
2019-01-22T07:56:51.299Z,-3.80
2019-01-22T07:59:52.275Z,-3.80
2019-01-22T08:02:47.236Z,-3.80
2019-01-22T08:06:16.415Z,-3.50
2019-01-22T08:09:27.583Z,-3.30
2019-01-22T08:12:10.789Z,-3.20
2019-01-22T08:15:30.140Z,-3.20
2019-01-22T08:18:34.330Z,-3.10
2019-01-22T08:21:39.572Z,-2.90
2019-01-22T08:24:26.508Z,-2.70
2019-01-22T08:27:31.346Z,-2.80
2019-01-22T08:31:00.799Z,-2.70
2019-01-22T08:33:54.523Z,-2.80
2019-01-22T08:37:14.679Z,-2.80
2019-01-22T08:40:33.683Z,-2.80
2019-01-22T08:43:54.155Z,-2.90
2019-01-22T08:47:07.207Z,-2.90
2019-01-22T08:50:12.232Z,-2.90
2019-01-22T08:53:16.494Z,-2.90
2019-01-22T08:56:24.471Z,-2.90
2019-01-22T08:59:20.503Z,-3.00
2019-01-22T09:02:30.750Z,-3.00
2019-01-22T09:05:33.435Z,-2.80
2019-01-22T09:08:22.594Z,-2.80
2019-01-22T09:11:29.760Z,-2.80
2019-01-22T09:14:33.183Z,-2.70
2019-01-22T09:17:59.704Z,-2.60
2019-01-22T09:21:06.896Z,-2.40
2019-01-22T09:24:23.835Z,-2.30
2019-01-22T09:27:37.071Z,-2.20
2019-01-22T09:30:35.075Z,-2.20
2019-01-22T09:33:52.348Z,-2.40
2019-01-22T09:36:38.331Z,-2.30
2019-01-22T09:39:12.451Z,-2.20
2019-01-22T09:41:42.732Z,-2.10
2019-01-22T09:44:12.953Z,-2.10
2019-01-22T09:46:43.115Z,-2.10
2019-01-22T09:49:13.299Z,-2.10
2019-01-22T09:51:43.497Z,-2.20
2019-01-22T09:54:13.703Z,-2.20
2019-01-22T09:56:43.880Z,-2.20
2019-01-22T09:59:14.052Z,-2.10
2019-01-22T10:01:44.247Z,-2.10
2019-01-22T10:04:14.447Z,-2.10
2019-01-22T10:06:44.623Z,-2.10
2019-01-22T10:09:14.886Z,-2.00
2019-01-22T10:11:45.088Z,-2.00
2019-01-22T10:14:15.275Z,-1.90
2019-01-22T10:16:45.433Z,-1.90
2019-01-22T10:19:15.754Z,-1.80
2019-01-22T10:21:45.928Z,-1.70
2019-01-22T10:24:16.125Z,-1.50
2019-01-22T10:26:46.398Z,-1.30
2019-01-22T10:29:16.616Z,-1.20
2019-01-22T10:31:50.355Z,-1.10
2019-01-22T10:34:18.659Z,-1.00
2019-01-22T10:36:48.991Z,-1.20
2019-01-22T10:39:19.174Z,-1.20
2019-01-22T10:41:49.361Z,-1.00
2019-01-22T10:44:19.531Z,-0.90
2019-01-22T10:46:49.732Z,-1.00
2019-01-22T10:49:19.975Z,-1.20
2019-01-22T10:51:50.175Z,-1.30
2019-01-22T10:54:20.334Z,-1.30
2019-01-22T10:56:50.540Z,-1.20
2019-01-22T10:59:20.799Z,-1.20
2019-01-22T11:01:51.028Z,-1.10
2019-01-22T11:04:21.294Z,-1.20
2019-01-22T11:06:51.491Z,-1.10
2019-01-22T11:09:21.660Z,-1.00
2019-01-22T11:11:51.864Z,-0.90
2019-01-22T11:14:22.064Z,-0.70
2019-01-22T11:16:53.812Z,-0.40
2019-01-22T11:19:27.796Z,-0.40
2019-01-22T11:21:55.879Z,-0.70
2019-01-22T11:24:30.257Z,-1.10
2019-01-22T11:26:59.059Z,-1.10
2019-01-22T11:29:29.291Z,-1.00
2019-01-22T11:31:59.531Z,-0.90
2019-01-22T11:34:29.727Z,-0.80
2019-01-22T11:36:59.934Z,-0.70
2019-01-22T11:39:30.122Z,-0.50
2019-01-22T11:42:03.168Z,-0.50
2019-01-22T11:44:33.364Z,-0.40
2019-01-22T11:47:04.775Z,-0.30
2019-01-22T11:49:35.080Z,-0.30
2019-01-22T11:52:05.329Z,-0.40
2019-01-22T11:54:35.466Z,-0.30
2019-01-22T11:57:05.666Z,-0.40
2019-01-22T11:59:35.948Z,-0.50
2019-01-22T12:02:06.531Z,-0.40
2019-01-22T12:04:36.768Z,-0.50
2019-01-22T12:07:06.936Z,-0.40
2019-01-22T12:09:37.524Z,-0.20
2019-01-22T12:12:07.714Z,-0.20
2019-01-22T12:14:37.896Z,0.10
2019-01-22T12:17:08.080Z,0.30
2019-01-22T12:19:38.247Z,0.20
2019-01-22T12:22:08.436Z,0.40
2019-01-22T12:24:38.624Z,0.40
2019-01-22T12:27:08.804Z,0.40
2019-01-22T12:29:38.973Z,0.50
2019-01-22T12:32:09.256Z,0.40
2019-01-22T12:34:39.436Z,0.30
2019-01-22T12:37:09.735Z,0.20
2019-01-22T12:39:40.038Z,0.30
2019-01-22T12:42:10.298Z,0.00
2019-01-22T12:44:41.810Z,-0.20
2019-01-22T12:47:12.114Z,-0.40
2019-01-22T12:49:42.388Z,-0.50
2019-01-22T12:52:12.601Z,-0.60
2019-01-22T12:54:42.902Z,-0.60
2019-01-22T12:57:13.098Z,-0.70
2019-01-22T12:59:43.377Z,-0.70
2019-01-22T13:02:13.580Z,-0.80
2019-01-22T13:04:43.795Z,-0.80
2019-01-22T13:07:14.012Z,-0.70
2019-01-22T13:09:44.170Z,-0.70
2019-01-22T13:12:14.580Z,-0.70
2019-01-22T13:14:44.755Z,-0.70
2019-01-22T13:17:14.942Z,-0.60
2019-01-22T13:19:45.136Z,-0.60
2019-01-22T13:22:15.387Z,-0.60
2019-01-22T13:24:45.612Z,-0.60
2019-01-22T13:27:15.781Z,-0.70
2019-01-22T13:29:45.981Z,-0.70
2019-01-22T13:32:16.239Z,-0.70
2019-01-22T13:34:46.524Z,-0.70
2019-01-22T13:37:16.861Z,-0.70
2019-01-22T13:39:47.119Z,-0.70
2019-01-22T13:42:17.445Z,-0.70
2019-01-22T13:44:47.648Z,-0.70
2019-01-22T13:47:17.935Z,-0.80
2019-01-22T13:49:48.169Z,-0.80
2019-01-22T13:52:18.385Z,-0.80
2019-01-22T13:54:48.565Z,-0.80
2019-01-22T13:57:18.739Z,-0.80
2019-01-22T13:59:48.934Z,-0.80
2019-01-22T14:02:19.145Z,-0.80
2019-01-22T14:04:49.555Z,-0.80
2019-01-22T14:07:19.755Z,-0.70
2019-01-22T14:09:49.984Z,-0.70
2019-01-22T14:12:20.253Z,-0.70
2019-01-22T14:14:50.633Z,-0.70
2019-01-22T14:17:20.936Z,-0.70
2019-01-22T14:19:51.184Z,-0.60
2019-01-22T14:22:23.758Z,-0.60
2019-01-22T14:24:56.451Z,-0.60
2019-01-22T14:27:26.640Z,-0.60
2019-01-22T14:29:56.875Z,-0.60
2019-01-22T14:32:27.215Z,-0.60
2019-01-22T14:34:57.399Z,-0.50
2019-01-22T14:37:27.583Z,-0.50
2019-01-22T14:39:57.767Z,-0.50
2019-01-22T14:42:27.996Z,-0.50
2019-01-22T14:44:58.191Z,-0.50
2019-01-22T14:47:28.419Z,-0.40
2019-01-22T14:49:58.629Z,-0.50
2019-01-22T14:52:28.823Z,-0.50
2019-01-22T14:54:59.013Z,-0.50
2019-01-22T14:57:29.343Z,-0.60
2019-01-22T14:59:59.623Z,-0.60
2019-01-22T15:02:30.912Z,-0.70
2019-01-22T15:05:01.099Z,-0.70
2019-01-22T15:07:31.278Z,-0.70
2019-01-22T15:10:01.587Z,-0.70
2019-01-22T15:12:32.838Z,-0.80
2019-01-22T15:15:03.055Z,-0.80
2019-01-22T15:17:33.250Z,-0.80
2019-01-22T15:20:09.352Z,-0.90
2019-01-22T15:22:39.550Z,-1.00
2019-01-22T15:25:10.460Z,-1.10
2019-01-22T15:27:40.688Z,-1.10
2019-01-22T15:30:37.068Z,-1.20
2019-01-22T15:33:08.389Z,-1.20
2019-01-22T15:35:38.573Z,-1.40
2019-01-22T15:38:08.779Z,-1.40
2019-01-22T15:40:38.964Z,-1.50
2019-01-22T15:43:10.667Z,-1.60
2019-01-22T15:45:40.852Z,-1.70
2019-01-22T15:48:11.090Z,-1.70
2019-01-22T15:50:41.406Z,-1.70
2019-01-22T15:53:11.612Z,-1.80
2019-01-22T15:55:47.874Z,-1.80
2019-01-22T15:58:13.685Z,-1.80
2019-01-22T16:00:45.360Z,-1.90
2019-01-22T16:03:15.653Z,-1.90
2019-01-22T16:05:45.884Z,-2.00
2019-01-22T16:08:16.071Z,-2.00
2019-01-22T16:10:46.251Z,-2.00
2019-01-22T16:13:16.470Z,-2.00
2019-01-22T16:15:46.735Z,-2.00
2019-01-22T16:18:16.937Z,-2.10
2019-01-22T16:20:47.168Z,-2.10
2019-01-22T16:23:17.334Z,-2.10
2019-01-22T16:25:47.551Z,-2.10
2019-01-22T16:28:17.720Z,-2.20
2019-01-22T16:30:47.935Z,-2.20
2019-01-22T16:33:18.243Z,-2.20
2019-01-22T16:35:48.424Z,-2.20
2019-01-22T16:38:18.615Z,-2.20
2019-01-22T16:40:48.789Z,-2.20
2019-01-22T16:43:19.048Z,-2.20
2019-01-22T16:45:49.312Z,-2.20
2019-01-22T16:48:19.501Z,-2.20
2019-01-22T16:50:50.764Z,-2.20
2019-01-22T16:53:22.278Z,-2.20
2019-01-22T16:55:52.497Z,-2.20
2019-01-22T16:58:22.670Z,-2.20
2019-01-22T17:00:52.864Z,-2.20
2019-01-22T17:03:23.263Z,-2.20
2019-01-22T17:05:53.565Z,-2.20
2019-01-22T17:08:23.782Z,-2.20
2019-01-22T17:10:53.997Z,-2.20
2019-01-22T17:13:24.210Z,-2.20
2019-01-22T17:15:57.573Z,-2.20
2019-01-22T17:18:27.755Z,-2.30
2019-01-22T17:20:58.059Z,-2.30
2019-01-22T17:23:28.237Z,-2.20
2019-01-22T17:25:58.463Z,-2.20
2019-01-22T17:28:28.616Z,-2.20
2019-01-22T17:30:59.807Z,-2.20
2019-01-22T17:33:37.336Z,-2.20
2019-01-22T17:36:07.787Z,-2.20
2019-01-22T17:38:39.847Z,-2.20
2019-01-22T17:41:10.055Z,-2.20
2019-01-22T17:43:40.244Z,-2.20
2019-01-22T17:46:10.480Z,-2.20
2019-01-22T17:48:40.731Z,-2.20
2019-01-22T17:51:10.922Z,-2.20
2019-01-22T17:53:41.185Z,-2.20
2019-01-22T17:56:11.361Z,-2.20
2019-01-22T17:58:41.567Z,-2.20
2019-01-22T18:01:11.820Z,-2.20
2019-01-22T18:03:42.049Z,-2.20
2019-01-22T18:06:12.213Z,-2.20
2019-01-22T18:08:42.423Z,-2.20
2019-01-22T18:11:12.592Z,-2.20
2019-01-22T18:13:42.784Z,-2.20
2019-01-22T18:16:12.948Z,-2.20
2019-01-22T18:18:46.259Z,-2.20
2019-01-22T18:21:15.148Z,-2.20
2019-01-22T18:23:45.360Z,-2.20
2019-01-22T18:26:15.569Z,-2.20
2019-01-22T18:28:45.737Z,-2.20
2019-01-22T18:31:15.931Z,-2.20
2019-01-22T18:33:46.208Z,-2.20
2019-01-22T18:36:16.403Z,-2.20
2019-01-22T18:38:46.679Z,-2.20
2019-01-22T18:41:18.347Z,-2.20
2019-01-22T18:43:48.617Z,-2.20
2019-01-22T18:46:21.790Z,-2.20
2019-01-22T18:48:52.088Z,-2.10
2019-01-22T18:51:22.499Z,-2.10
2019-01-22T18:53:52.704Z,-2.10
2019-01-22T18:56:22.924Z,-2.10
2019-01-22T18:58:54.215Z,-2.10
2019-01-22T19:01:24.491Z,-2.10
2019-01-22T19:03:54.723Z,-2.10
2019-01-22T19:06:24.910Z,-2.10
2019-01-22T19:08:55.212Z,-2.10
2019-01-22T19:11:25.420Z,-2.10
2019-01-22T19:13:55.636Z,-2.10
2019-01-22T19:16:25.824Z,-2.10
2019-01-22T19:18:56.017Z,-2.10
2019-01-22T19:21:27.406Z,-2.10
2019-01-22T19:23:57.640Z,-2.00
2019-01-22T19:26:28.033Z,-2.00
2019-01-22T19:28:58.243Z,-2.00
2019-01-22T19:31:28.513Z,-2.00
2019-01-22T19:33:58.719Z,-2.00
2019-01-22T19:36:28.889Z,-2.00
2019-01-22T19:38:59.224Z,-2.00
2019-01-22T19:41:29.448Z,-2.00
2019-01-22T19:43:59.611Z,-2.00
2019-01-22T19:46:30.023Z,-2.00
2019-01-22T19:49:00.221Z,-2.00
2019-01-22T19:51:30.439Z,-2.00
2019-01-22T19:54:00.620Z,-2.00
2019-01-22T19:56:30.856Z,-2.00
2019-01-22T19:59:01.048Z,-2.00
2019-01-22T20:01:31.239Z,-2.00
2019-01-22T20:04:01.521Z,-2.00
2019-01-22T20:06:31.741Z,-2.10
2019-01-22T20:09:01.992Z,-2.00
2019-01-22T20:11:33.948Z,-2.10
2019-01-22T20:14:04.464Z,-2.10
2019-01-22T20:16:34.636Z,-2.10
2019-01-22T20:19:04.833Z,-2.10
2019-01-22T20:21:36.112Z,-2.10
2019-01-22T20:24:06.307Z,-2.10
2019-01-22T20:26:36.517Z,-2.10
2019-01-22T20:29:06.690Z,-2.10
2019-01-22T20:31:36.917Z,-2.10
2019-01-22T20:34:07.111Z,-2.10
2019-01-22T20:36:37.424Z,-2.20
2019-01-22T20:39:09.968Z,-2.10
2019-01-22T20:41:40.177Z,-2.20
2019-01-22T20:44:12.158Z,-2.10
2019-01-22T20:46:43.433Z,-2.20
2019-01-22T20:49:13.604Z,-2.20
2019-01-22T20:51:43.811Z,-2.10
2019-01-22T20:54:14.001Z,-2.20
2019-01-22T20:56:44.892Z,-2.20
2019-01-22T20:59:15.239Z,-2.20
2019-01-22T21:01:45.448Z,-2.10
2019-01-22T21:04:15.692Z,-2.10
2019-01-22T21:06:45.980Z,-2.10
2019-01-22T21:09:16.269Z,-2.10
2019-01-22T21:11:46.603Z,-2.10
2019-01-22T21:14:16.901Z,-2.10
2019-01-22T21:16:47.109Z,-2.10
2019-01-22T21:19:17.288Z,-2.10
2019-01-22T21:21:47.483Z,-2.10
2019-01-22T21:24:17.675Z,-2.10
2019-01-22T21:26:47.901Z,-2.10
2019-01-22T21:29:18.268Z,-2.10
2019-01-22T21:31:48.437Z,-2.10
2019-01-22T21:34:18.621Z,-2.10
2019-01-22T21:36:53.143Z,-2.10
2019-01-22T21:39:20.704Z,-2.10
2019-01-22T21:41:50.929Z,-2.10
2019-01-22T21:44:21.143Z,-2.10
2019-01-22T21:46:51.349Z,-2.10
2019-01-22T21:49:21.600Z,-2.10
2019-01-22T21:51:51.792Z,-2.10
2019-01-22T21:54:22.080Z,-2.10
2019-01-22T21:56:52.295Z,-2.10
2019-01-22T21:59:22.490Z,-2.10
2019-01-22T22:01:52.699Z,-2.10
2019-01-22T22:04:22.932Z,-2.10
2019-01-22T22:06:53.186Z,-2.10
2019-01-22T22:09:23.385Z,-2.20
2019-01-22T22:11:53.556Z,-2.10
2019-01-22T22:14:23.760Z,-2.10
2019-01-22T22:16:53.914Z,-2.10
2019-01-22T22:19:23.807Z,-2.10
2019-01-22T22:21:54.091Z,-2.10
2019-01-22T22:24:24.296Z,-2.10
2019-01-22T22:26:54.526Z,-2.10
2019-01-22T22:29:24.695Z,-2.10
2019-01-22T22:31:54.992Z,-2.10
2019-01-22T22:34:25.158Z,-2.10
2019-01-22T22:36:55.360Z,-2.10
2019-01-22T22:39:26.736Z,-2.10
2019-01-22T22:41:56.975Z,-2.10
2019-01-22T22:44:27.163Z,-2.10
2019-01-22T22:46:57.443Z,-2.10
2019-01-22T22:49:27.616Z,-2.10
2019-01-22T22:51:57.795Z,-2.10
2019-01-22T22:54:28.072Z,-2.10
2019-01-22T22:56:58.273Z,-2.10
2019-01-22T22:59:28.426Z,-2.10
2019-01-22T23:01:58.642Z,-2.00
2019-01-22T23:04:28.865Z,-2.10
2019-01-22T23:06:59.096Z,-2.00
2019-01-22T23:09:29.284Z,-2.00
2019-01-22T23:11:59.473Z,-2.00
2019-01-22T23:14:29.669Z,-2.00
2019-01-22T23:17:00.061Z,-2.00
2019-01-22T23:19:30.242Z,-2.00
2019-01-22T23:22:00.440Z,-2.00
2019-01-22T23:24:30.615Z,-2.00
2019-01-22T23:27:00.848Z,-2.00
2019-01-22T23:29:31.043Z,-2.10
2019-01-22T23:32:02.202Z,-2.00
2019-01-22T23:34:32.444Z,-2.00
2019-01-22T23:37:02.627Z,-2.00
2019-01-22T23:39:32.812Z,-2.00
2019-01-22T23:42:02.991Z,-2.00
2019-01-22T23:44:33.195Z,-2.00
2019-01-22T23:47:05.332Z,-2.10
2019-01-22T23:49:35.495Z,-2.00
2019-01-22T23:52:05.931Z,-2.00
2019-01-22T23:54:36.117Z,-2.00
2019-01-22T23:57:07.284Z,-2.00
2019-01-22T23:59:37.488Z,-2.00
